Woolavington, United Kingdom
Current Conditions -  °F | °C
As of 5:50 AM on Wednesday 22 Oct 2014 (Local Time) from EGDY Reporting Station
Scattered Clouds Scattered Clouds  
Wind Chill: 45°   Ceiling: Unl
Heat Index: 48°   Visibility: 6mi
Dew Point: 37°   Wind: 7mph
Humidity: 66%   Direction: 250°WSW
Pressure: 30.3"   Gusts: NA
Location:  51.16°N, 2.94°W
Report Text: EGDY 220450Z AUTO 25006KT 9999 SCT044/// 09/03 Q1026
Loading
Personal Weather Stations






























Interactive Weather Map
Tropical Storm Tracking
New forecast layout! Learn more

10-Day Weather Forecast

Advertisements
Track Severe Weather on mobile